Airfield :







YOU CAN JOIN US ON...

 
LOGIN :

Register | Disclaimer

   EN    FR    IT 

 









Legend :    VFR   Marginal VFR   IFR   Intensive IFR   Very Intensive IFR
Visi :
Ceiling :
>= 8 km
>= 3000ft
5 to 8 km
1000 to 3000 ft
1500m to 5 km
500 to 1000 ft
800 to 1500m
200 to 500 ft
< 800m
< 200 ft
Symbols :   Thunderstorms  Fog  Heavy snow  Heavy precipitations  Wind > 20 kt






- Airport Elevation : 1808 ft
- IATA code : YWK


CYWK - Wabush

CURRENT METAR :
  • 281018Z AUTO 03012KT 6SM -SN OVC050 M18/M22 A2958 RMK SLP070

EXPIRED METARs :
  • 281000Z AUTO 04010KT 9SM -SN OVC048 M18/M22 A2959 RMK SLP074
  • 280957Z AUTO 04010KT 6SM -SN OVC048 M18/M22 A2959 RMK SLP075
  • 280952Z AUTO 04009KT 3SM -SN OVC044 M18/M22 A2960 RMK SLP076
  • 280944Z AUTO 04010G15KT 2SM -SN OVC040 M18/M22 A2959 RMK VIS VRB 1-3 SLP075
  • 280936Z AUTO 03011KT 1 3/4SM -SN OVC034 M18/M23 A2960 RMK SLP076
  • 280914Z AUTO 03010G16KT 9SM OVC036 M18/M23 A2960 RMK SLP077
  • 280900Z AUTO 04012G17KT 9SM -SN OVC034 M18/M23 A2960 RMK SLP078
  • 280831Z AUTO 04015KT 9SM -SN BKN038 OVC070 M17/M24 A2961 RMK PRESFR SLP078
  • 280800Z AUTO 04010KT 9SM OVC065 M17/M23 A2963 RMK SLP086

TAF TAF CYWK
Valid from the 28 at 08:00 until the 28 at 20:00 UTC


280738Z 2808/2820 06012KT P6SM OVC210
BECMG 2808/2810 08012G22KT BKN010 OVC100
FM281000 08012G22KT P6SM FEW008 SCT015 OVC025
TEMPO 2810/2811 1SM -SN BKN008 OVC015
FM281100 06012G22KT 1SM -SN OVC005
TEMPO 2811/2814 3SM -SN OVC007
BECMG 2812/2814 08015G25KT
FM281400 08015G25KT 3/4SM -SN BLSN OVC004 RMK FCST BASED ON AUTO OBS. NXT FCST BY 281400Z



MET'MAP, your aeronautical weather chart ! - Copyright ORBIFLY December 2007 - Disclaimer

ORBIFLY MET'MAP TEAM :

Programming & Development : Alexandra Zaïnal
Concept & original design : Baudouin d'Aumeries
Assistance for programming : Marc-Olivier Méhu
Technical & hardware support : Manuel Goepfert

Contact : metmap@orbifly.com




SOURCES & CREDITS :

   NOAA